sensor_id;sensor_type;location;lat;lon;timestamp;temperature;humidity
7360;DHT22;3720;48.274;7.796;2022-09-09T00:00:54;19.00;99.90
7360;DHT22;3720;48.274;7.796;2022-09-09T00:03:31;19.10;99.90
7360;DHT22;3720;48.274;7.796;2022-09-09T00:06:09;19.10;99.90
7360;DHT22;3720;48.274;7.796;2022-09-09T00:08:51;19.10;99.90
7360;DHT22;3720;48.274;7.796;2022-09-09T00:11:30;19.10;99.90
7360;DHT22;3720;48.274;7.796;2022-09-09T00:14:13;19.00;99.90
7360;DHT22;3720;48.274;7.796;2022-09-09T00:16:51;19.00;99.90
7360;DHT22;3720;48.274;7.796;2022-09-09T00:19:32;19.00;99.90
7360;DHT22;3720;48.274;7.796;2022-09-09T00:22:14;19.00;99.90
7360;DHT22;3720;48.274;7.796;2022-09-09T00:24:51;19.10;99.90
7360;DHT22;3720;48.274;7.796;2022-09-09T00:27:28;19.10;99.90
7360;DHT22;3720;48.274;7.796;2022-09-09T00:30:15;19.10;99.90
7360;DHT22;3720;48.274;7.796;2022-09-09T00:32:54;19.10;99.90
7360;DHT22;3720;48.274;7.796;2022-09-09T00:35:31;19.10;99.90
7360;DHT22;3720;48.274;7.796;2022-09-09T00:38:10;19.10;99.90
7360;DHT22;3720;48.274;7.796;2022-09-09T00:40:49;19.10;99.90
7360;DHT22;3720;48.274;7.796;2022-09-09T00:43:29;19.10;99.90
7360;DHT22;3720;48.274;7.796;2022-09-09T00:49:10;19.00;99.90
7360;DHT22;3720;48.274;7.796;2022-09-09T00:51:54;18.90;99.90
7360;DHT22;3720;48.274;7.796;2022-09-09T00:54:39;18.80;99.90
7360;DHT22;3720;48.274;7.796;2022-09-09T00:57:23;18.80;99.90
7360;DHT22;3720;48.274;7.796;2022-09-09T01:00:18;18.90;99.90
7360;DHT22;3720;48.274;7.796;2022-09-09T01:03:02;18.90;99.90
7360;DHT22;3720;48.274;7.796;2022-09-09T01:05:43;18.80;99.90
7360;DHT22;3720;48.274;7.796;2022-09-09T01:08:29;18.80;99.90
7360;DHT22;3720;48.274;7.796;2022-09-09T01:11:12;18.70;99.90
7360;DHT22;3720;48.274;7.796;2022-09-09T01:13:52;18.80;99.90
7360;DHT22;3720;48.274;7.796;2022-09-09T01:16:26;18.80;99.90
7360;DHT22;3720;48.274;7.796;2022-09-09T01:19:00;18.90;99.90
7360;DHT22;3720;48.274;7.796;2022-09-09T01:21:40;19.00;99.90
7360;DHT22;3720;48.274;7.796;2022-09-09T01:24:22;19.00;99.90
7360;DHT22;3720;48.274;7.796;2022-09-09T01:26:58;19.10;99.90
7360;DHT22;3720;48.274;7.796;2022-09-09T01:29:30;19.00;99.90
7360;DHT22;3720;48.274;7.796;2022-09-09T01:34:50;18.80;99.90
7360;DHT22;3720;48.274;7.796;2022-09-09T01:37:22;18.60;99.90
7360;DHT22;3720;48.274;7.796;2022-09-09T01:39:55;18.60;99.90
7360;DHT22;3720;48.274;7.796;2022-09-09T01:42:28;18.40;99.90
7360;DHT22;3720;48.274;7.796;2022-09-09T01:45:00;18.40;99.90
7360;DHT22;3720;48.274;7.796;2022-09-09T01:47:32;18.30;99.90
7360;DHT22;3720;48.274;7.796;2022-09-09T01:50:04;18.20;99.90
7360;DHT22;3720;48.274;7.796;2022-09-09T01:52:38;18.10;99.90
7360;DHT22;3720;48.274;7.796;2022-09-09T01:55:10;18.20;99.90
7360;DHT22;3720;48.274;7.796;2022-09-09T01:57:49;18.20;99.90
7360;DHT22;3720;48.274;7.796;2022-09-09T02:00:23;18.10;99.90
7360;DHT22;3720;48.274;7.796;2022-09-09T02:03:00;18.10;99.90
7360;DHT22;3720;48.274;7.796;2022-09-09T02:05:37;18.10;99.90
7360;DHT22;3720;48.274;7.796;2022-09-09T02:08:12;18.10;99.90
7360;DHT22;3720;48.274;7.796;2022-09-09T02:10:52;18.00;99.90
7360;DHT22;3720;48.274;7.796;2022-09-09T02:13:29;18.00;99.90
7360;DHT22;3720;48.274;7.796;2022-09-09T02:16:07;18.00;99.90
7360;DHT22;3720;48.274;7.796;2022-09-09T02:18:42;17.90;99.90
7360;DHT22;3720;48.274;7.796;2022-09-09T02:21:17;17.90;99.90
7360;DHT22;3720;48.274;7.796;2022-09-09T02:23:50;17.90;99.90
7360;DHT22;3720;48.274;7.796;2022-09-09T02:26:25;17.90;99.90
7360;DHT22;3720;48.274;7.796;2022-09-09T02:29:02;18.00;99.90
7360;DHT22;3720;48.274;7.796;2022-09-09T02:31:37;18.00;99.90
7360;DHT22;3720;48.274;7.796;2022-09-09T02:34:11;18.00;99.90
7360;DHT22;3720;48.274;7.796;2022-09-09T02:36:46;18.10;99.90
7360;DHT22;3720;48.274;7.796;2022-09-09T02:39:19;18.10;99.90
7360;DHT22;3720;48.274;7.796;2022-09-09T02:41:51;18.00;99.90
7360;DHT22;3720;48.274;7.796;2022-09-09T02:44:25;17.90;99.90
7360;DHT22;3720;48.274;7.796;2022-09-09T02:47:10;17.90;99.90
7360;DHT22;3720;48.274;7.796;2022-09-09T02:49:55;17.90;99.90
7360;DHT22;3720;48.274;7.796;2022-09-09T02:52:34;18.00;99.90
7360;DHT22;3720;48.274;7.796;2022-09-09T02:55:16;18.00;99.90
7360;DHT22;3720;48.274;7.796;2022-09-09T02:57:50;17.90;99.90
7360;DHT22;3720;48.274;7.796;2022-09-09T03:00:25;17.90;99.90
7360;DHT22;3720;48.274;7.796;2022-09-09T03:02:58;18.00;99.90
7360;DHT22;3720;48.274;7.796;2022-09-09T03:05:30;18.20;99.90
7360;DHT22;3720;48.274;7.796;2022-09-09T03:08:03;18.10;99.90
7360;DHT22;3720;48.274;7.796;2022-09-09T03:10:36;18.10;99.90
7360;DHT22;3720;48.274;7.796;2022-09-09T03:13:08;18.00;99.90
7360;DHT22;3720;48.274;7.796;2022-09-09T03:15:42;18.00;99.90
7360;DHT22;3720;48.274;7.796;2022-09-09T03:18:15;17.90;99.90
7360;DHT22;3720;48.274;7.796;2022-09-09T03:20:47;17.80;99.90
7360;DHT22;3720;48.274;7.796;2022-09-09T03:23:21;17.80;99.90
7360;DHT22;3720;48.274;7.796;2022-09-09T03:25:53;17.80;99.90
7360;DHT22;3720;48.274;7.796;2022-09-09T03:28:27;17.80;99.90
7360;DHT22;3720;48.274;7.796;2022-09-09T03:31:04;17.70;99.90
7360;DHT22;3720;48.274;7.796;2022-09-09T03:33:36;17.70;99.90
7360;DHT22;3720;48.274;7.796;2022-09-09T03:36:08;17.70;99.90
7360;DHT22;3720;48.274;7.796;2022-09-09T03:38:41;17.70;99.90
7360;DHT22;3720;48.274;7.796;2022-09-09T03:41:12;17.60;99.90
7360;DHT22;3720;48.274;7.796;2022-09-09T03:43:44;17.60;99.90
7360;DHT22;3720;48.274;7.796;2022-09-09T03:46:18;17.60;99.90
7360;DHT22;3720;48.274;7.796;2022-09-09T03:48:51;17.60;99.90
7360;DHT22;3720;48.274;7.796;2022-09-09T03:51:24;17.50;99.90
7360;DHT22;3720;48.274;7.796;2022-09-09T03:53:55;17.50;99.90
7360;DHT22;3720;48.274;7.796;2022-09-09T03:56:28;17.50;99.90
7360;DHT22;3720;48.274;7.796;2022-09-09T03:59:00;17.60;99.90
7360;DHT22;3720;48.274;7.796;2022-09-09T04:01:34;17.60;99.90
7360;DHT22;3720;48.274;7.796;2022-09-09T04:04:06;17.50;99.90
7360;DHT22;3720;48.274;7.796;2022-09-09T04:06:39;17.60;99.90
7360;DHT22;3720;48.274;7.796;2022-09-09T04:09:11;17.50;99.90
7360;DHT22;3720;48.274;7.796;2022-09-09T04:11:43;17.50;99.90
7360;DHT22;3720;48.274;7.796;2022-09-09T04:14:16;17.50;99.90
7360;DHT22;3720;48.274;7.796;2022-09-09T04:16:49;17.50;99.90
7360;DHT22;3720;48.274;7.796;2022-09-09T04:19:21;17.40;99.90
7360;DHT22;3720;48.274;7.796;2022-09-09T04:21:52;17.30;99.90
7360;DHT22;3720;48.274;7.796;2022-09-09T04:24:24;17.30;99.90
7360;DHT22;3720;48.274;7.796;2022-09-09T04:26:59;17.30;99.90
7360;DHT22;3720;48.274;7.796;2022-09-09T04:29:31;17.20;99.90
7360;DHT22;3720;48.274;7.796;2022-09-09T04:32:05;17.20;99.90
7360;DHT22;3720;48.274;7.796;2022-09-09T04:34:37;17.20;99.90
7360;DHT22;3720;48.274;7.796;2022-09-09T04:37:09;17.20;99.90
7360;DHT22;3720;48.274;7.796;2022-09-09T04:39:41;17.10;99.90
7360;DHT22;3720;48.274;7.796;2022-09-09T04:42:13;17.10;99.90
7360;DHT22;3720;48.274;7.796;2022-09-09T04:44:45;17.00;99.90
7360;DHT22;3720;48.274;7.796;2022-09-09T04:47:18;17.00;99.90
7360;DHT22;3720;48.274;7.796;2022-09-09T04:49:50;17.10;99.90
7360;DHT22;3720;48.274;7.796;2022-09-09T04:52:24;17.00;99.90
7360;DHT22;3720;48.274;7.796;2022-09-09T04:54:56;17.00;99.90
7360;DHT22;3720;48.274;7.796;2022-09-09T04:57:29;17.00;99.90
7360;DHT22;3720;48.274;7.796;2022-09-09T05:00:04;17.10;99.90
7360;DHT22;3720;48.274;7.796;2022-09-09T05:02:38;17.00;99.90
7360;DHT22;3720;48.274;7.796;2022-09-09T05:05:10;17.10;99.90
7360;DHT22;3720;48.274;7.796;2022-09-09T05:07:43;17.20;99.90
7360;DHT22;3720;48.274;7.796;2022-09-09T05:10:15;17.20;99.90
7360;DHT22;3720;48.274;7.796;2022-09-09T05:12:52;17.10;99.90
7360;DHT22;3720;48.274;7.796;2022-09-09T05:15:25;17.20;99.90
7360;DHT22;3720;48.274;7.796;2022-09-09T05:17:59;17.30;99.90
7360;DHT22;3720;48.274;7.796;2022-09-09T05:20:32;17.30;99.90
7360;DHT22;3720;48.274;7.796;2022-09-09T05:23:04;17.30;99.90
7360;DHT22;3720;48.274;7.796;2022-09-09T05:25:36;17.30;99.90
7360;DHT22;3720;48.274;7.796;2022-09-09T05:28:08;17.30;99.90
7360;DHT22;3720;48.274;7.796;2022-09-09T05:30:42;17.30;99.90
7360;DHT22;3720;48.274;7.796;2022-09-09T05:33:15;17.40;99.90
7360;DHT22;3720;48.274;7.796;2022-09-09T05:35:47;17.40;99.90
7360;DHT22;3720;48.274;7.796;2022-09-09T05:38:19;17.40;99.90
7360;DHT22;3720;48.274;7.796;2022-09-09T05:40:51;17.50;99.90
7360;DHT22;3720;48.274;7.796;2022-09-09T05:43:23;17.50;99.90
7360;DHT22;3720;48.274;7.796;2022-09-09T05:46:00;17.50;99.90
7360;DHT22;3720;48.274;7.796;2022-09-09T05:48:37;17.50;99.90
7360;DHT22;3720;48.274;7.796;2022-09-09T05:51:11;17.50;99.90
7360;DHT22;3720;48.274;7.796;2022-09-09T05:53:46;17.50;99.90
7360;DHT22;3720;48.274;7.796;2022-09-09T05:56:19;17.60;99.90
7360;DHT22;3720;48.274;7.796;2022-09-09T05:58:53;17.70;99.90
7360;DHT22;3720;48.274;7.796;2022-09-09T06:01:27;17.60;99.90
7360;DHT22;3720;48.274;7.796;2022-09-09T06:04:01;17.60;99.90
7360;DHT22;3720;48.274;7.796;2022-09-09T06:06:35;17.70;99.90
7360;DHT22;3720;48.274;7.796;2022-09-09T06:09:08;17.70;99.90
7360;DHT22;3720;48.274;7.796;2022-09-09T06:11:42;17.70;99.90
7360;DHT22;3720;48.274;7.796;2022-09-09T06:14:14;17.70;99.90
7360;DHT22;3720;48.274;7.796;2022-09-09T06:16:48;17.70;99.90
7360;DHT22;3720;48.274;7.796;2022-09-09T06:19:21;17.80;99.90
7360;DHT22;3720;48.274;7.796;2022-09-09T06:21:54;17.80;99.90
7360;DHT22;3720;48.274;7.796;2022-09-09T06:24:26;17.90;99.90
7360;DHT22;3720;48.274;7.796;2022-09-09T06:27:00;17.90;99.90
7360;DHT22;3720;48.274;7.796;2022-09-09T06:29:32;18.00;99.90
7360;DHT22;3720;48.274;7.796;2022-09-09T06:32:04;18.10;99.90
7360;DHT22;3720;48.274;7.796;2022-09-09T06:34:40;18.20;99.90
7360;DHT22;3720;48.274;7.796;2022-09-09T06:37:12;18.20;99.90
7360;DHT22;3720;48.274;7.796;2022-09-09T06:39:44;18.30;99.90
7360;DHT22;3720;48.274;7.796;2022-09-09T06:42:15;18.40;99.90
7360;DHT22;3720;48.274;7.796;2022-09-09T06:44:48;18.40;99.90
7360;DHT22;3720;48.274;7.796;2022-09-09T06:47:20;18.50;99.90
7360;DHT22;3720;48.274;7.796;2022-09-09T06:49:53;18.70;99.90
7360;DHT22;3720;48.274;7.796;2022-09-09T06:52:26;18.70;99.90
7360;DHT22;3720;48.274;7.796;2022-09-09T06:54:58;18.70;99.90
7360;DHT22;3720;48.274;7.796;2022-09-09T06:57:30;18.70;99.90
7360;DHT22;3720;48.274;7.796;2022-09-09T07:00:03;18.70;99.90
7360;DHT22;3720;48.274;7.796;2022-09-09T07:02:36;18.70;99.90
7360;DHT22;3720;48.274;7.796;2022-09-09T07:05:10;18.70;99.90
7360;DHT22;3720;48.274;7.796;2022-09-09T07:07:42;18.90;99.90
7360;DHT22;3720;48.274;7.796;2022-09-09T07:10:14;18.90;99.90
7360;DHT22;3720;48.274;7.796;2022-09-09T07:12:50;18.90;99.90
7360;DHT22;3720;48.274;7.796;2022-09-09T07:15:23;18.90;99.90
7360;DHT22;3720;48.274;7.796;2022-09-09T07:17:55;18.90;99.90
7360;DHT22;3720;48.274;7.796;2022-09-09T07:20:28;18.90;99.90
7360;DHT22;3720;48.274;7.796;2022-09-09T07:23:00;18.90;99.90
7360;DHT22;3720;48.274;7.796;2022-09-09T07:25:32;19.00;99.90
7360;DHT22;3720;48.274;7.796;2022-09-09T07:28:04;19.00;99.90
7360;DHT22;3720;48.274;7.796;2022-09-09T07:30:35;19.10;99.90
7360;DHT22;3720;48.274;7.796;2022-09-09T07:33:07;19.10;99.90
7360;DHT22;3720;48.274;7.796;2022-09-09T07:35:41;19.20;99.90
7360;DHT22;3720;48.274;7.796;2022-09-09T07:38:13;19.20;99.90
7360;DHT22;3720;48.274;7.796;2022-09-09T07:40:46;19.30;99.90
7360;DHT22;3720;48.274;7.796;2022-09-09T07:43:17;19.30;99.90
7360;DHT22;3720;48.274;7.796;2022-09-09T07:45:57;19.30;99.90
7360;DHT22;3720;48.274;7.796;2022-09-09T07:48:29;19.30;99.90
7360;DHT22;3720;48.274;7.796;2022-09-09T07:51:08;19.50;99.90
7360;DHT22;3720;48.274;7.796;2022-09-09T07:53:42;19.70;99.90
7360;DHT22;3720;48.274;7.796;2022-09-09T07:56:16;19.80;99.90
7360;DHT22;3720;48.274;7.796;2022-09-09T07:58:48;19.90;99.90
7360;DHT22;3720;48.274;7.796;2022-09-09T08:01:22;20.10;99.90
7360;DHT22;3720;48.274;7.796;2022-09-09T08:03:57;20.30;99.90
7360;DHT22;3720;48.274;7.796;2022-09-09T08:06:35;20.50;99.90
7360;DHT22;3720;48.274;7.796;2022-09-09T08:09:08;20.60;99.90
7360;DHT22;3720;48.274;7.796;2022-09-09T08:11:41;20.70;99.90
7360;DHT22;3720;48.274;7.796;2022-09-09T08:14:14;20.80;99.90
7360;DHT22;3720;48.274;7.796;2022-09-09T08:16:47;20.90;99.90
7360;DHT22;3720;48.274;7.796;2022-09-09T08:19:20;21.00;99.90
7360;DHT22;3720;48.274;7.796;2022-09-09T08:21:53;21.00;99.90
7360;DHT22;3720;48.274;7.796;2022-09-09T08:24:25;21.10;99.90
7360;DHT22;3720;48.274;7.796;2022-09-09T08:26:57;21.10;99.90
7360;DHT22;3720;48.274;7.796;2022-09-09T08:29:29;21.10;99.90
7360;DHT22;3720;48.274;7.796;2022-09-09T08:32:01;21.20;99.90
7360;DHT22;3720;48.274;7.796;2022-09-09T08:34:33;21.20;99.90
7360;DHT22;3720;48.274;7.796;2022-09-09T08:37:07;21.20;99.90
7360;DHT22;3720;48.274;7.796;2022-09-09T08:39:39;21.30;99.90
7360;DHT22;3720;48.274;7.796;2022-09-09T08:42:29;21.50;99.90
7360;DHT22;3720;48.274;7.796;2022-09-09T08:48:15;21.60;99.90
7360;DHT22;3720;48.274;7.796;2022-09-09T08:50:51;21.80;99.90
7360;DHT22;3720;48.274;7.796;2022-09-09T08:53:28;22.00;99.90
7360;DHT22;3720;48.274;7.796;2022-09-09T08:56:06;22.40;99.90
7360;DHT22;3720;48.274;7.796;2022-09-09T08:58:45;22.30;99.90
7360;DHT22;3720;48.274;7.796;2022-09-09T09:01:29;22.20;99.90
7360;DHT22;3720;48.274;7.796;2022-09-09T09:04:12;22.10;99.90
7360;DHT22;3720;48.274;7.796;2022-09-09T09:06:52;21.90;99.90
7360;DHT22;3720;48.274;7.796;2022-09-09T09:09:32;21.60;99.90
7360;DHT22;3720;48.274;7.796;2022-09-09T09:12:15;21.40;99.90
7360;DHT22;3720;48.274;7.796;2022-09-09T09:14:48;21.30;99.90
7360;DHT22;3720;48.274;7.796;2022-09-09T09:17:21;21.00;99.90
7360;DHT22;3720;48.274;7.796;2022-09-09T09:19:55;20.80;99.90
7360;DHT22;3720;48.274;7.796;2022-09-09T09:22:32;20.30;99.90
7360;DHT22;3720;48.274;7.796;2022-09-09T09:25:13;19.70;99.90
7360;DHT22;3720;48.274;7.796;2022-09-09T09:27:56;18.80;99.90
7360;DHT22;3720;48.274;7.796;2022-09-09T09:30:36;18.20;99.90
7360;DHT22;3720;48.274;7.796;2022-09-09T09:33:15;17.80;99.90
7360;DHT22;3720;48.274;7.796;2022-09-09T09:35:49;17.60;99.90
7360;DHT22;3720;48.274;7.796;2022-09-09T09:38:23;17.60;99.90
7360;DHT22;3720;48.274;7.796;2022-09-09T09:40:58;17.60;99.90
7360;DHT22;3720;48.274;7.796;2022-09-09T09:43:32;17.60;99.90
7360;DHT22;3720;48.274;7.796;2022-09-09T09:46:05;17.50;99.90
7360;DHT22;3720;48.274;7.796;2022-09-09T09:48:56;17.40;99.90
7360;DHT22;3720;48.274;7.796;2022-09-09T09:51:30;17.40;99.90
7360;DHT22;3720;48.274;7.796;2022-09-09T09:54:14;17.50;99.90
7360;DHT22;3720;48.274;7.796;2022-09-09T09:56:50;17.70;99.90
7360;DHT22;3720;48.274;7.796;2022-09-09T09:59:33;17.90;99.90
7360;DHT22;3720;48.274;7.796;2022-09-09T10:02:17;18.10;99.90
7360;DHT22;3720;48.274;7.796;2022-09-09T10:05:00;18.30;99.90
7360;DHT22;3720;48.274;7.796;2022-09-09T10:07:33;18.50;99.90
7360;DHT22;3720;48.274;7.796;2022-09-09T10:10:07;18.70;99.90
7360;DHT22;3720;48.274;7.796;2022-09-09T10:12:54;18.80;99.90
7360;DHT22;3720;48.274;7.796;2022-09-09T10:15:37;19.00;99.90
7360;DHT22;3720;48.274;7.796;2022-09-09T10:18:26;19.50;99.90
7360;DHT22;3720;48.274;7.796;2022-09-09T10:21:11;20.00;99.90
7360;DHT22;3720;48.274;7.796;2022-09-09T10:31:01;21.10;99.90
7360;DHT22;3720;48.274;7.796;2022-09-09T10:33:42;21.60;99.90
7360;DHT22;3720;48.274;7.796;2022-09-09T10:36:20;21.90;99.90
7360;DHT22;3720;48.274;7.796;2022-09-09T10:38:57;22.20;99.90
7360;DHT22;3720;48.274;7.796;2022-09-09T10:41:36;22.40;99.90
7360;DHT22;3720;48.274;7.796;2022-09-09T10:44:17;22.70;99.90
7360;DHT22;3720;48.274;7.796;2022-09-09T10:47:04;22.70;99.90
7360;DHT22;3720;48.274;7.796;2022-09-09T10:50:00;22.90;99.90
7360;DHT22;3720;48.274;7.796;2022-09-09T10:52:39;23.20;99.90
7360;DHT22;3720;48.274;7.796;2022-09-09T10:55:17;23.50;99.90
7360;DHT22;3720;48.274;7.796;2022-09-09T10:57:50;23.70;99.90
7360;DHT22;3720;48.274;7.796;2022-09-09T11:00:24;23.90;99.90
7360;DHT22;3720;48.274;7.796;2022-09-09T11:03:01;24.00;99.90
7360;DHT22;3720;48.274;7.796;2022-09-09T11:05:38;23.70;99.90
7360;DHT22;3720;48.274;7.796;2022-09-09T11:08:17;23.40;99.90
7360;DHT22;3720;48.274;7.796;2022-09-09T11:10:53;23.10;99.90
7360;DHT22;3720;48.274;7.796;2022-09-09T11:13:36;23.40;99.90
7360;DHT22;3720;48.274;7.796;2022-09-09T11:16:20;23.40;99.90
7360;DHT22;3720;48.274;7.796;2022-09-09T11:18:59;23.00;99.90
7360;DHT22;3720;48.274;7.796;2022-09-09T11:21:38;23.00;99.90
7360;DHT22;3720;48.274;7.796;2022-09-09T11:24:18;23.20;99.90
7360;DHT22;3720;48.274;7.796;2022-09-09T11:26:55;23.20;99.90
7360;DHT22;3720;48.274;7.796;2022-09-09T11:29:49;23.00;99.90
7360;DHT22;3720;48.274;7.796;2022-09-09T11:32:40;22.70;99.90
7360;DHT22;3720;48.274;7.796;2022-09-09T11:35:27;22.50;99.90
7360;DHT22;3720;48.274;7.796;2022-09-09T11:38:16;22.40;99.90
7360;DHT22;3720;48.274;7.796;2022-09-09T11:40:56;22.70;99.90
7360;DHT22;3720;48.274;7.796;2022-09-09T11:43:32;22.70;99.90
7360;DHT22;3720;48.274;7.796;2022-09-09T11:46:06;22.50;99.90
7360;DHT22;3720;48.274;7.796;2022-09-09T11:48:40;22.40;99.90
7360;DHT22;3720;48.274;7.796;2022-09-09T11:51:27;22.60;99.90
7360;DHT22;3720;48.274;7.796;2022-09-09T11:54:01;22.40;99.90
7360;DHT22;3720;48.274;7.796;2022-09-09T11:56:41;22.50;99.90
7360;DHT22;3720;48.274;7.796;2022-09-09T11:59:20;23.00;99.90
7360;DHT22;3720;48.274;7.796;2022-09-09T12:01:56;22.90;99.90
7360;DHT22;3720;48.274;7.796;2022-09-09T12:04:39;22.50;99.90
7360;DHT22;3720;48.274;7.796;2022-09-09T12:07:26;22.30;99.90
7360;DHT22;3720;48.274;7.796;2022-09-09T12:10:04;22.10;99.90
7360;DHT22;3720;48.274;7.796;2022-09-09T12:12:38;22.20;99.90
7360;DHT22;3720;48.274;7.796;2022-09-09T12:15:20;22.10;99.90
7360;DHT22;3720;48.274;7.796;2022-09-09T12:17:54;21.90;99.90
7360;DHT22;3720;48.274;7.796;2022-09-09T12:20:31;21.80;99.90
7360;DHT22;3720;48.274;7.796;2022-09-09T12:23:20;21.70;99.90
7360;DHT22;3720;48.274;7.796;2022-09-09T12:26:01;21.60;99.90
7360;DHT22;3720;48.274;7.796;2022-09-09T12:28:45;21.60;99.90
7360;DHT22;3720;48.274;7.796;2022-09-09T12:31:22;21.80;99.90
7360;DHT22;3720;48.274;7.796;2022-09-09T12:34:06;22.50;99.90
7360;DHT22;3720;48.274;7.796;2022-09-09T12:36:43;23.20;99.90
7360;DHT22;3720;48.274;7.796;2022-09-09T12:39:24;23.40;99.90
7360;DHT22;3720;48.274;7.796;2022-09-09T12:42:01;23.60;99.90
7360;DHT22;3720;48.274;7.796;2022-09-09T12:44:34;23.80;99.90
7360;DHT22;3720;48.274;7.796;2022-09-09T12:47:09;23.60;99.90
7360;DHT22;3720;48.274;7.796;2022-09-09T12:49:43;23.60;99.90
7360;DHT22;3720;48.274;7.796;2022-09-09T12:52:20;23.70;99.90
7360;DHT22;3720;48.274;7.796;2022-09-09T12:54:58;23.90;99.90
7360;DHT22;3720;48.274;7.796;2022-09-09T12:57:34;23.80;99.90
7360;DHT22;3720;48.274;7.796;2022-09-09T13:00:12;23.60;99.90
7360;DHT22;3720;48.274;7.796;2022-09-09T13:02:47;23.70;99.90
7360;DHT22;3720;48.274;7.796;2022-09-09T13:05:22;23.90;99.90
7360;DHT22;3720;48.274;7.796;2022-09-09T13:08:01;24.20;99.90
7360;DHT22;3720;48.274;7.796;2022-09-09T13:10:38;24.40;99.90
7360;DHT22;3720;48.274;7.796;2022-09-09T13:13:14;24.60;99.90
7360;DHT22;3720;48.274;7.796;2022-09-09T13:15:50;24.70;99.90
7360;DHT22;3720;48.274;7.796;2022-09-09T13:18:24;24.70;99.90
7360;DHT22;3720;48.274;7.796;2022-09-09T13:20:57;24.50;99.90
7360;DHT22;3720;48.274;7.796;2022-09-09T13:23:31;24.50;99.90
7360;DHT22;3720;48.274;7.796;2022-09-09T13:26:06;24.60;99.90
7360;DHT22;3720;48.274;7.796;2022-09-09T13:28:52;24.40;99.90
7360;DHT22;3720;48.274;7.796;2022-09-09T13:31:32;24.00;99.90
7360;DHT22;3720;48.274;7.796;2022-09-09T13:34:11;23.70;99.90
7360;DHT22;3720;48.274;7.796;2022-09-09T13:36:48;23.40;99.90
7360;DHT22;3720;48.274;7.796;2022-09-09T13:39:20;23.60;99.90
7360;DHT22;3720;48.274;7.796;2022-09-09T13:41:53;23.90;99.90
7360;DHT22;3720;48.274;7.796;2022-09-09T13:44:27;24.10;99.90
7360;DHT22;3720;48.274;7.796;2022-09-09T13:47:02;23.80;99.90
7360;DHT22;3720;48.274;7.796;2022-09-09T13:49:34;23.30;99.90
7360;DHT22;3720;48.274;7.796;2022-09-09T13:52:10;23.10;99.90
7360;DHT22;3720;48.274;7.796;2022-09-09T13:54:43;23.20;99.90
7360;DHT22;3720;48.274;7.796;2022-09-09T13:57:20;23.60;99.90
7360;DHT22;3720;48.274;7.796;2022-09-09T13:59:53;23.90;99.90
7360;DHT22;3720;48.274;7.796;2022-09-09T14:02:26;24.00;99.90
7360;DHT22;3720;48.274;7.796;2022-09-09T14:04:58;24.00;99.90
7360;DHT22;3720;48.274;7.796;2022-09-09T14:07:30;24.10;99.90
7360;DHT22;3720;48.274;7.796;2022-09-09T14:10:02;24.10;99.90
7360;DHT22;3720;48.274;7.796;2022-09-09T14:12:36;24.20;99.90
7360;DHT22;3720;48.274;7.796;2022-09-09T14:15:10;24.30;99.90
7360;DHT22;3720;48.274;7.796;2022-09-09T14:17:42;23.90;99.90
7360;DHT22;3720;48.274;7.796;2022-09-09T14:20:14;23.60;99.90
7360;DHT22;3720;48.274;7.796;2022-09-09T14:22:48;23.60;99.90
7360;DHT22;3720;48.274;7.796;2022-09-09T14:25:20;23.40;99.90
7360;DHT22;3720;48.274;7.796;2022-09-09T14:27:53;23.20;99.90
7360;DHT22;3720;48.274;7.796;2022-09-09T14:30:25;23.40;99.90
7360;DHT22;3720;48.274;7.796;2022-09-09T14:32:57;23.60;99.90
7360;DHT22;3720;48.274;7.796;2022-09-09T14:35:28;23.50;99.90
7360;DHT22;3720;48.274;7.796;2022-09-09T14:38:00;23.20;99.90
7360;DHT22;3720;48.274;7.796;2022-09-09T14:40:34;23.10;99.90
7360;DHT22;3720;48.274;7.796;2022-09-09T14:43:10;22.90;99.90
7360;DHT22;3720;48.274;7.796;2022-09-09T14:45:42;22.70;99.90
7360;DHT22;3720;48.274;7.796;2022-09-09T14:48:15;22.60;99.90
7360;DHT22;3720;48.274;7.796;2022-09-09T14:50:47;22.60;99.90
7360;DHT22;3720;48.274;7.796;2022-09-09T14:53:19;22.60;99.90
7360;DHT22;3720;48.274;7.796;2022-09-09T14:55:52;22.80;99.90
7360;DHT22;3720;48.274;7.796;2022-09-09T14:58:30;22.90;99.90
7360;DHT22;3720;48.274;7.796;2022-09-09T15:01:04;23.00;99.90
7360;DHT22;3720;48.274;7.796;2022-09-09T15:03:36;22.80;99.90
7360;DHT22;3720;48.274;7.796;2022-09-09T15:06:10;22.40;99.90
7360;DHT22;3720;48.274;7.796;2022-09-09T15:08:43;22.10;99.90
7360;DHT22;3720;48.274;7.796;2022-09-09T15:11:16;22.10;99.90
7360;DHT22;3720;48.274;7.796;2022-09-09T15:13:51;22.20;99.90
7360;DHT22;3720;48.274;7.796;2022-09-09T15:16:25;22.30;99.90
7360;DHT22;3720;48.274;7.796;2022-09-09T15:18:58;22.20;99.90
7360;DHT22;3720;48.274;7.796;2022-09-09T15:21:32;22.00;99.90
7360;DHT22;3720;48.274;7.796;2022-09-09T15:24:05;21.90;99.90
7360;DHT22;3720;48.274;7.796;2022-09-09T15:26:38;22.00;99.90
7360;DHT22;3720;48.274;7.796;2022-09-09T15:29:12;22.00;99.90
7360;DHT22;3720;48.274;7.796;2022-09-09T15:31:44;22.10;99.90
7360;DHT22;3720;48.274;7.796;2022-09-09T15:34:17;22.20;99.90
7360;DHT22;3720;48.274;7.796;2022-09-09T15:36:49;22.10;99.90
7360;DHT22;3720;48.274;7.796;2022-09-09T15:39:21;22.20;99.90
7360;DHT22;3720;48.274;7.796;2022-09-09T15:41:53;22.00;99.90
7360;DHT22;3720;48.274;7.796;2022-09-09T15:44:27;21.90;99.90
7360;DHT22;3720;48.274;7.796;2022-09-09T15:46:59;21.90;99.90
7360;DHT22;3720;48.274;7.796;2022-09-09T15:49:31;21.90;99.90
7360;DHT22;3720;48.274;7.796;2022-09-09T15:52:03;21.90;99.90
7360;DHT22;3720;48.274;7.796;2022-09-09T15:54:36;21.90;99.90
7360;DHT22;3720;48.274;7.796;2022-09-09T15:57:11;21.80;99.90
7360;DHT22;3720;48.274;7.796;2022-09-09T15:59:45;21.70;99.90
7360;DHT22;3720;48.274;7.796;2022-09-09T16:02:18;21.60;99.90
7360;DHT22;3720;48.274;7.796;2022-09-09T16:04:50;21.60;99.90
7360;DHT22;3720;48.274;7.796;2022-09-09T16:07:22;21.60;99.90
7360;DHT22;3720;48.274;7.796;2022-09-09T16:09:54;21.50;99.90
7360;DHT22;3720;48.274;7.796;2022-09-09T16:12:26;21.40;99.90
7360;DHT22;3720;48.274;7.796;2022-09-09T16:14:59;21.40;99.90
7360;DHT22;3720;48.274;7.796;2022-09-09T16:17:31;21.30;99.90
7360;DHT22;3720;48.274;7.796;2022-09-09T16:20:08;21.30;99.90
7360;DHT22;3720;48.274;7.796;2022-09-09T16:22:42;21.30;99.90
7360;DHT22;3720;48.274;7.796;2022-09-09T16:25:14;21.30;99.90
7360;DHT22;3720;48.274;7.796;2022-09-09T16:27:46;21.30;99.90
7360;DHT22;3720;48.274;7.796;2022-09-09T16:30:19;21.30;99.90
7360;DHT22;3720;48.274;7.796;2022-09-09T16:32:51;21.20;99.90
7360;DHT22;3720;48.274;7.796;2022-09-09T16:35:23;21.10;99.90
7360;DHT22;3720;48.274;7.796;2022-09-09T16:37:55;21.00;99.90
7360;DHT22;3720;48.274;7.796;2022-09-09T16:40:27;20.80;99.90
7360;DHT22;3720;48.274;7.796;2022-09-09T16:42:59;20.70;99.90
7360;DHT22;3720;48.274;7.796;2022-09-09T16:45:33;20.60;99.90
7360;DHT22;3720;48.274;7.796;2022-09-09T16:48:05;20.50;99.90
7360;DHT22;3720;48.274;7.796;2022-09-09T16:50:37;20.40;99.90
7360;DHT22;3720;48.274;7.796;2022-09-09T16:53:09;20.40;99.90
7360;DHT22;3720;48.274;7.796;2022-09-09T16:55:42;20.30;99.90
7360;DHT22;3720;48.274;7.796;2022-09-09T16:58:15;20.30;99.90
7360;DHT22;3720;48.274;7.796;2022-09-09T17:00:48;20.30;99.90
7360;DHT22;3720;48.274;7.796;2022-09-09T17:03:21;20.30;99.90
7360;DHT22;3720;48.274;7.796;2022-09-09T17:05:54;20.30;99.90
7360;DHT22;3720;48.274;7.796;2022-09-09T17:08:28;20.20;99.90
7360;DHT22;3720;48.274;7.796;2022-09-09T17:11:01;20.20;99.90